Teanaway, Washington
Current Conditions -  °F | °C
As of 2:53 AM on Tuesday 21 Oct 2014 (Local Time) from KELN Reporting Station
Moderate Fog Moderate Fog  
Wind Chill: 44°   Ceiling: 100
Heat Index: 44°   Visibility: 0.25mi
Dew Point: 41°   Wind: 0mph
Humidity: 89%   Direction: NA
Pressure: 29.81"   Gusts: NA
Location:  47.3367°N, 121.023°W
Report Text: KELN 210953Z AUTO 00000KT 1/4SM FG VV001 07/05 A2981 RMK AO2 SLP096 T00670050
Loading
Personal Weather Stations






























Interactive Weather Map
Tropical Storm Tracking
New forecast layout! Learn more

10-Day Weather Forecast

Advertisements
Track Severe Weather on mobile